Terminal Aerodrome Forecast
Issued by NWS Wilmington, OH

Current Version | Previous Version | Text Only | Print | Product List | Glossary Off
Versions: 1 2 3 4 5 6 7 8 9 10 11 12 13 14

000
FTUS41 KILN 271100
TAFILN
TAF
KILN 271134Z 2712/2812 34008KT P6SM SCT035
     FM271400 33011KT P6SM BKN035
     FM271900 32012G22KT P6SM BKN040
     FM280100 32008KT P6SM FEW040
     FM281100 36009KT P6SM SCT035=

USA.gov is the U.S. government's official web portal to all federal, state and local government web resources and services.